Time;durP1;ratioP1;P1;durP2;ratioP2;P2;SDS_P1;SDS_P2;PMS_P1;PMS_P2;Temp;Humidity;BMP_temperature;BMP_pressure;BME280_temperature;BME280_humidity;BME280_pressure;Samples;Min_cycle;Max_cycle;Signal;HPM_P1;HPM_P2
2021/11/08 00:00:45;;;;;;;11.57;7.65;;;6.80;99.90;;;;;;4997664;28;20022;-81
2021/11/08 00:03:13;;;;;;;8.70;6.40;;;6.80;99.90;;;;;;5013164;28;20106;-80
2021/11/08 00:05:42;;;;;;;8.30;6.28;;;6.80;99.90;;;;;;5020224;28;20030;-80
2021/11/08 00:08:08;;;;;;;12.13;7.57;;;6.80;99.90;;;;;;5016746;28;20021;-80
2021/11/08 00:10:36;;;;;;;9.10;7.07;;;6.80;99.90;;;;;;5023951;28;20026;-80
2021/11/08 00:13:07;;;;;;;11.15;7.13;;;6.80;99.90;;;;;;5012432;28;20056;-80
2021/11/08 00:20:53;;;;;;;14.00;8.23;;;6.80;99.90;;;;;;5018080;28;20065;-79
2021/11/08 00:23:20;;;;;;;10.65;7.05;;;6.80;99.90;;;;;;5016702;28;20494;-79
2021/11/08 00:25:46;;;;;;;8.70;6.80;;;6.80;99.90;;;;;;5017187;28;20022;-80
2021/11/08 00:28:14;;;;;;;8.88;6.60;;;6.80;99.90;;;;;;5017195;28;20048;-80
2021/11/08 00:30:42;;;;;;;9.95;7.85;;;6.80;99.90;;;;;;5016523;28;20032;-79
2021/11/08 00:33:14;;;;;;;10.93;7.28;;;6.80;99.90;;;;;;5017712;28;20034;-79
2021/11/08 00:35:40;;;;;;;9.02;6.68;;;6.80;99.90;;;;;;5016596;28;20494;-80
2021/11/08 00:38:07;;;;;;;8.65;6.70;;;6.90;99.90;;;;;;5000369;28;20105;-81
2021/11/08 00:40:34;;;;;;;8.63;6.38;;;6.90;99.90;;;;;;5018563;28;20026;-81
2021/11/08 00:43:00;;;;;;;8.77;6.10;;;6.90;99.90;;;;;;5026291;28;20133;-80
2021/11/08 00:45:26;;;;;;;9.30;6.50;;;7.00;99.90;;;;;;5024096;28;20092;-80
2021/11/08 00:47:52;;;;;;;11.32;7.57;;;7.00;99.90;;;;;;5025303;28;20018;-80
2021/11/08 00:50:19;;;;;;;12.48;8.70;;;7.10;99.90;;;;;;5024681;28;20093;-80
2021/11/08 00:52:45;;;;;;;11.57;8.40;;;7.00;99.90;;;;;;5006649;28;20093;-80
2021/11/08 00:55:11;;;;;;;9.45;7.03;;;7.00;99.90;;;;;;5026782;28;20033;-80
2021/11/08 00:57:39;;;;;;;10.38;7.18;;;7.00;99.90;;;;;;5026352;28;20032;-80
2021/11/08 01:00:07;;;;;;;9.38;6.70;;;7.00;99.90;;;;;;5026091;28;20030;-81
2021/11/08 01:02:33;;;;;;;10.77;7.35;;;7.00;99.90;;;;;;5014531;28;20100;-80
2021/11/08 01:05:00;;;;;;;7.97;6.22;;;7.10;99.90;;;;;;5014098;28;20045;-81
2021/11/08 01:07:26;;;;;;;11.18;7.88;;;7.00;99.90;;;;;;4997530;28;20056;-82
2021/11/08 01:09:51;;;;;;;11.88;8.05;;;7.10;99.90;;;;;;5008106;28;20010;-80
2021/11/08 01:12:17;;;;;;;9.13;6.75;;;7.00;99.90;;;;;;5026089;28;20022;-80
2021/11/08 01:14:44;;;;;;;13.18;8.25;;;7.00;99.90;;;;;;5018477;28;20026;-80
2021/11/08 01:17:10;;;;;;;13.45;8.70;;;7.00;99.90;;;;;;5037423;28;20029;-79
2021/11/08 01:19:37;;;;;;;9.70;7.28;;;7.00;99.90;;;;;;5020069;28;20112;-79
2021/11/08 01:22:07;;;;;;;9.18;6.70;;;7.00;99.90;;;;;;5034611;28;20037;-80
2021/11/08 01:24:35;;;;;;;9.18;7.43;;;6.90;99.90;;;;;;5036705;28;20021;-80
2021/11/08 01:27:02;;;;;;;10.65;8.32;;;6.90;99.90;;;;;;5014188;28;20034;-80
2021/11/08 01:29:31;;;;;;;8.18;6.57;;;6.90;99.90;;;;;;4997236;28;20152;-80
2021/11/08 01:32:00;;;;;;;9.75;7.20;;;6.90;99.90;;;;;;5014456;28;20022;-80
2021/11/08 01:34:29;;;;;;;8.98;6.65;;;6.90;99.90;;;;;;5014484;28;20053;-80
2021/11/08 01:36:57;;;;;;;9.70;6.40;;;6.90;99.90;;;;;;4996196;28;20401;-81
2021/11/08 01:39:31;;;;;;;11.10;7.07;;;6.90;99.90;;;;;;4997237;28;20033;-80
2021/11/08 01:41:58;;;;;;;8.63;6.72;;;6.90;99.90;;;;;;5024379;28;20049;-80
2021/11/08 01:44:24;;;;;;;10.90;7.43;;;6.90;99.90;;;;;;4997254;28;20037;-80
2021/11/08 01:46:50;;;;;;;9.40;6.75;;;7.00;99.90;;;;;;4997080;28;20026;-80
2021/11/08 01:49:15;;;;;;;10.07;6.97;;;7.00;99.90;;;;;;5015231;28;20040;-80
2021/11/08 01:51:42;;;;;;;8.80;6.25;;;6.90;99.90;;;;;;5018114;28;20088;-80
2021/11/08 01:54:08;;;;;;;11.73;7.95;;;6.90;99.90;;;;;;5022919;28;20033;-80
2021/11/08 01:56:35;;;;;;;11.63;6.90;;;6.90;99.90;;;;;;5017001;28;20049;-80
2021/11/08 01:59:03;;;;;;;10.60;7.15;;;6.90;99.90;;;;;;5013449;28;20103;-80
2021/11/08 02:01:28;;;;;;;8.07;6.43;;;6.90;99.90;;;;;;5014735;28;20018;-80
2021/11/08 02:03:54;;;;;;;9.68;7.13;;;6.90;99.90;;;;;;5014335;28;20029;-80
2021/11/08 02:06:20;;;;;;;9.85;6.47;;;6.90;99.90;;;;;;5015103;28;20058;-80
2021/11/08 02:08:46;;;;;;;10.30;6.53;;;6.90;99.90;;;;;;5014196;28;20080;-80
2021/11/08 02:11:12;;;;;;;11.25;6.50;;;6.90;99.90;;;;;;5022798;28;20022;-80
2021/11/08 02:13:39;;;;;;;7.68;5.60;;;6.90;99.90;;;;;;5031081;28;20022;-81
2021/11/08 02:16:07;;;;;;;8.90;5.93;;;6.90;99.90;;;;;;5041851;28;20387;-80
2021/11/08 02:18:34;;;;;;;6.40;5.28;;;6.90;99.90;;;;;;5028948;28;20037;-81
2021/11/08 02:21:02;;;;;;;8.23;6.03;;;6.90;99.90;;;;;;5018192;28;20029;-81
2021/11/08 02:23:28;;;;;;;8.60;5.60;;;6.90;99.90;;;;;;5017988;28;20114;-81
2021/11/08 02:25:59;;;;;;;10.15;7.18;;;6.80;99.90;;;;;;5000285;28;20022;-80
2021/11/08 02:28:25;;;;;;;12.85;7.45;;;6.80;99.90;;;;;;5003573;28;20033;-81
2021/11/08 02:30:55;;;;;;;10.52;7.93;;;6.80;99.90;;;;;;5018215;28;20022;-80
2021/11/08 02:33:22;;;;;;;10.48;7.93;;;6.80;99.90;;;;;;4987775;28;20078;-81
2021/11/08 02:35:48;;;;;;;10.38;7.57;;;6.80;99.90;;;;;;4981553;28;20110;-80
2021/11/08 02:38:22;;;;;;;12.68;8.27;;;6.80;99.90;;;;;;4999122;28;20027;-81
2021/11/08 02:40:48;;;;;;;13.43;8.15;;;6.80;99.90;;;;;;4998650;28;20022;-81
2021/11/08 02:43:20;;;;;;;17.08;8.52;;;6.70;99.90;;;;;;5031459;28;20104;-81
2021/11/08 02:45:48;;;;;;;9.13;7.18;;;6.80;99.90;;;;;;5031035;28;20022;-81
2021/11/08 02:48:15;;;;;;;7.65;6.03;;;6.80;99.90;;;;;;5040898;28;20034;-80
2021/11/08 02:50:41;;;;;;;12.88;7.65;;;6.80;99.90;;;;;;5022707;28;20033;-81
2021/11/08 02:53:11;;;;;;;10.45;7.45;;;6.80;99.90;;;;;;5002702;28;20026;-81
2021/11/08 02:55:38;;;;;;;10.25;7.45;;;6.70;99.90;;;;;;5019956;28;20018;-81
2021/11/08 02:58:04;;;;;;;7.65;6.32;;;6.80;99.90;;;;;;5017996;28;20053;-81
2021/11/08 03:00:30;;;;;;;10.05;6.45;;;6.70;99.90;;;;;;5018245;28;20026;-81
2021/11/08 03:02:57;;;;;;;9.02;6.35;;;6.70;99.90;;;;;;5017571;28;20048;-81
2021/11/08 03:05:34;;;;;;;7.75;6.10;;;6.70;99.90;;;;;;5017068;28;20025;-80
2021/11/08 03:08:02;;;;;;;7.47;5.63;;;6.80;99.90;;;;;;4998752;28;20451;-81
2021/11/08 03:10:32;;;;;;;7.47;5.40;;;6.80;99.90;;;;;;5010505;28;20072;-81
2021/11/08 03:13:07;;;;;;;7.80;5.63;;;6.80;99.90;;;;;;5028140;28;20022;-81
2021/11/08 03:16:24;;;;;;;11.75;6.97;;;6.80;99.90;;;;;;5018424;28;20097;-81
2021/11/08 03:18:28;;;;;;;9.48;6.90;;;6.80;99.90;;;;;;5006526;28;20402;-81
2021/11/08 03:20:57;;;;;;;10.23;7.18;;;6.80;99.90;;;;;;5018662;28;20505;-80
2021/11/08 03:23:23;;;;;;;7.85;6.45;;;6.80;99.90;;;;;;5029076;28;20025;-80
2021/11/08 03:26:05;;;;;;;14.18;7.88;;;6.80;99.90;;;;;;5008987;28;20026;-80
2021/11/08 03:28:31;;;;;;;11.65;6.82;;;6.80;99.90;;;;;;5019728;28;20041;-81
2021/11/08 03:30:57;;;;;;;11.73;8.05;;;6.80;99.90;;;;;;5019904;28;20447;-81
2021/11/08 03:33:24;;;;;;;12.77;7.45;;;6.80;99.90;;;;;;5018134;28;20045;-81
2021/11/08 03:35:51;;;;;;;9.32;6.72;;;6.80;99.90;;;;;;5003036;28;20079;-81
2021/11/08 03:38:17;;;;;;;10.32;7.22;;;6.80;99.90;;;;;;4999875;28;20026;-81
2021/11/08 03:40:46;;;;;;;8.93;7.03;;;6.80;99.90;;;;;;5008307;28;20022;-81
2021/11/08 03:43:15;;;;;;;10.45;7.55;;;6.80;99.90;;;;;;5023576;28;20021;-81
2021/11/08 03:45:42;;;;;;;9.18;6.63;;;6.80;99.90;;;;;;5040203;28;20021;-80
2021/11/08 03:48:12;;;;;;;8.25;6.28;;;6.80;99.90;;;;;;5039881;28;20021;-81
2021/11/08 03:50:38;;;;;;;10.75;7.00;;;6.80;99.90;;;;;;5041073;28;20075;-81
2021/11/08 03:53:04;;;;;;;13.18;6.97;;;6.70;99.90;;;;;;5034899;28;20030;-80
2021/11/08 03:55:30;;;;;;;9.43;6.20;;;6.70;99.90;;;;;;5036520;28;20036;-80
2021/11/08 03:57:57;;;;;;;9.60;6.43;;;6.70;99.90;;;;;;5036450;28;20045;-79
2021/11/08 04:00:25;;;;;;;14.07;6.70;;;6.80;99.90;;;;;;5031840;28;20034;-81
2021/11/08 04:02:54;;;;;;;10.10;7.35;;;6.80;99.90;;;;;;5018153;28;20070;-80
2021/11/08 04:05:21;;;;;;;9.57;6.72;;;6.80;99.90;;;;;;5019036;28;20029;-81
2021/11/08 04:07:48;;;;;;;8.77;6.47;;;6.70;99.90;;;;;;4998185;28;20026;-80
2021/11/08 04:10:16;;;;;;;7.22;5.53;;;6.70;99.90;;;;;;5019252;28;20033;-82
2021/11/08 04:12:43;;;;;;;10.48;7.07;;;6.70;99.90;;;;;;5022098;28;20379;-81
2021/11/08 04:15:11;;;;;;;11.52;6.75;;;6.70;99.90;;;;;;5002403;28;20094;-80
2021/11/08 04:17:43;;;;;;;11.77;7.38;;;6.60;99.90;;;;;;5017617;28;20025;-81
2021/11/08 04:20:10;;;;;;;9.30;7.47;;;6.60;99.90;;;;;;5012736;28;20010;-80
2021/11/08 04:22:36;;;;;;;12.52;7.05;;;6.60;99.90;;;;;;5037444;28;20021;-80
2021/11/08 04:25:03;;;;;;;11.00;7.53;;;6.60;99.90;;;;;;5019453;28;20419;-81
2021/11/08 04:27:33;;;;;;;12.45;7.70;;;6.60;99.90;;;;;;5017052;28;20112;-79
2021/11/08 04:29:59;;;;;;;12.23;6.50;;;6.60;99.90;;;;;;4999848;28;20056;-81
2021/11/08 04:32:30;;;;;;;10.75;7.10;;;6.50;99.90;;;;;;5017668;28;20030;-81
2021/11/08 04:35:04;;;;;;;11.35;6.05;;;6.50;99.90;;;;;;5017377;28;20467;-81
2021/11/08 04:43:03;;;;;;;12.90;6.65;;;6.40;99.90;;;;;;5029688;28;20079;-80
2021/11/08 04:50:59;;;;;;;7.07;5.68;;;6.40;99.90;;;;;;4999064;28;20048;-81
2021/11/08 05:31:03;;;;;;;8.30;6.00;;;6.40;99.90;;;;;;5005984;28;20093;-81
2021/11/08 05:33:29;;;;;;;8.68;6.15;;;6.40;99.90;;;;;;5026519;23;20124;-83
2021/11/08 05:35:55;;;;;;;8.23;5.45;;;6.50;99.90;;;;;;4998568;28;20050;-83
2021/11/08 05:38:20;;;;;;;9.27;6.20;;;6.50;99.90;;;;;;5005477;28;20041;-83
2021/11/08 05:40:46;;;;;;;7.57;5.65;;;6.60;99.90;;;;;;5006581;28;20026;-84
2021/11/08 05:43:12;;;;;;;9.13;5.95;;;6.60;99.90;;;;;;5024878;28;20038;-84
2021/11/08 05:45:39;;;;;;;10.13;5.95;;;6.60;99.90;;;;;;5025687;28;20048;-84
2021/11/08 05:48:06;;;;;;;10.75;6.70;;;6.70;99.90;;;;;;5023172;28;20018;-84
2021/11/08 05:50:34;;;;;;;8.07;6.35;;;6.80;99.90;;;;;;5031032;28;20052;-84
2021/11/08 05:53:01;;;;;;;6.90;5.90;;;6.70;99.90;;;;;;5038936;28;20025;-83
2021/11/08 06:50:33;;;;;;;11.25;6.13;;;5.70;99.90;;;;;;5019353;28;20465;-83
2021/11/08 06:53:05;;;;;;;8.43;4.80;;;5.70;99.90;;;;;;5020269;28;20054;-83
2021/11/08 06:55:32;;;;;;;11.15;5.32;;;5.70;99.90;;;;;;5003553;28;20032;-84
2021/11/08 06:58:03;;;;;;;6.80;4.75;;;5.80;99.90;;;;;;5022964;28;20061;-84
2021/11/08 07:00:30;;;;;;;8.27;4.60;;;5.80;99.90;;;;;;5024728;28;20034;-84
2021/11/08 07:02:56;;;;;;;6.28;4.38;;;5.90;99.90;;;;;;5021849;28;20293;-83
2021/11/08 07:05:22;;;;;;;11.95;5.97;;;5.90;99.90;;;;;;5022772;28;20018;-84
2021/11/08 07:07:48;;;;;;;11.35;5.53;;;5.90;99.90;;;;;;5023220;28;20100;-84
2021/11/08 07:10:14;;;;;;;9.68;5.55;;;6.00;99.90;;;;;;4994764;28;20030;-84
2021/11/08 07:12:40;;;;;;;9.25;5.63;;;6.10;99.90;;;;;;5019266;28;20093;-83
2021/11/08 07:15:07;;;;;;;9.00;5.03;;;6.10;99.90;;;;;;5024637;28;20056;-83
2021/11/08 07:17:33;;;;;;;8.82;4.30;;;6.10;99.90;;;;;;5024400;28;20018;-83
2021/11/08 07:20:00;;;;;;;9.93;4.38;;;6.20;99.90;;;;;;5024588;28;20026;-84
2021/11/08 07:22:29;;;;;;;7.95;4.80;;;6.20;99.90;;;;;;5031321;28;20088;-83
2021/11/08 07:24:55;;;;;;;9.20;4.50;;;6.50;99.90;;;;;;5018682;28;20010;-83
2021/11/08 07:27:21;;;;;;;6.50;3.75;;;6.60;99.90;;;;;;5020124;28;20053;-83
2021/11/08 07:29:47;;;;;;;7.25;3.88;;;6.60;99.90;;;;;;5004894;28;20022;-84
2021/11/08 07:32:13;;;;;;;7.75;3.95;;;6.60;99.90;;;;;;5002200;28;20086;-83
2021/11/08 07:34:38;;;;;;;7.43;3.22;;;6.60;99.90;;;;;;5019659;28;20038;-84
2021/11/08 07:37:06;;;;;;;6.13;2.83;;;6.70;99.90;;;;;;5020795;28;20418;-84
2021/11/08 07:39:32;;;;;;;5.47;3.15;;;6.70;99.90;;;;;;5021493;28;20030;-84
2021/11/08 07:41:58;;;;;;;7.25;3.03;;;6.80;99.90;;;;;;5021409;28;20032;-84
2021/11/08 07:44:23;;;;;;;6.72;3.35;;;6.80;99.90;;;;;;5021405;28;20470;-84
2021/11/08 07:46:50;;;;;;;11.57;5.00;;;6.80;99.90;;;;;;5023521;28;20026;-84
2021/11/08 07:49:15;;;;;;;13.38;4.72;;;6.70;99.90;;;;;;5023996;28;20030;-84
2021/11/08 07:51:41;;;;;;;11.75;5.28;;;6.70;99.90;;;;;;5009097;28;20045;-83
2021/11/08 07:54:07;;;;;;;10.82;3.90;;;6.50;99.90;;;;;;5024107;28;20022;-83
2021/11/08 07:56:33;;;;;;;11.30;5.10;;;6.50;99.90;;;;;;5022746;28;20029;-83
2021/11/08 07:58:59;;;;;;;11.73;4.22;;;6.50;99.90;;;;;;5023566;28;20026;-83
2021/11/08 08:01:25;;;;;;;10.02;4.90;;;6.60;99.90;;;;;;5023271;28;20097;-83
2021/11/08 08:03:51;;;;;;;11.07;4.45;;;6.70;99.90;;;;;;5023723;28;20025;-83
2021/11/08 08:06:17;;;;;;;7.15;3.72;;;6.80;99.90;;;;;;5004342;28;20026;-84
2021/11/08 08:08:46;;;;;;;10.07;4.63;;;6.90;99.90;;;;;;5022985;28;20056;-84
2021/11/08 08:11:13;;;;;;;5.40;3.10;;;6.90;99.90;;;;;;5006386;28;20093;-84
2021/11/08 08:13:39;;;;;;;10.32;3.53;;;6.90;99.90;;;;;;5006548;28;20478;-84
2021/11/08 08:16:10;;;;;;;11.80;3.97;;;6.80;99.90;;;;;;5005594;28;20020;-84
2021/11/08 08:18:37;;;;;;;11.82;3.83;;;6.80;99.90;;;;;;5024256;28;20033;-83
2021/11/08 08:21:05;;;;;;;7.65;3.08;;;6.80;99.90;;;;;;5004851;28;20076;-85
2021/11/08 08:23:31;;;;;;;9.38;4.35;;;6.80;99.90;;;;;;5024304;28;20026;-82
2021/11/08 08:25:58;;;;;;;9.88;4.55;;;6.90;99.90;;;;;;5004909;28;20065;-83
2021/11/08 08:28:23;;;;;;;10.13;3.72;;;7.10;99.90;;;;;;5005877;28;20029;-83
2021/11/08 08:30:49;;;;;;;10.90;3.45;;;7.30;99.90;;;;;;5006544;28;20041;-83
2021/11/08 08:33:15;;;;;;;7.85;3.28;;;7.50;99.90;;;;;;5023281;28;20041;-85
2021/11/08 08:35:41;;;;;;;8.35;3.63;;;7.80;99.90;;;;;;5023298;28;20081;-85
2021/11/08 08:38:13;;;;;;;4.78;2.92;;;8.10;99.90;;;;;;5022717;28;20029;-84
2021/11/08 08:40:40;;;;;;;5.22;2.47;;;8.50;99.20;;;;;;5023962;28;20368;-84
2021/11/08 08:43:06;;;;;;;5.07;2.28;;;8.70;98.10;;;;;;5005073;28;20041;-84
2021/11/08 08:45:33;;;;;;;7.50;2.70;;;9.20;97.30;;;;;;5024476;28;20046;-83
2021/11/08 08:47:59;;;;;;;5.88;2.50;;;9.60;95.70;;;;;;5022158;28;20022;-84
2021/11/08 08:50:26;;;;;;;6.43;2.28;;;10.00;94.50;;;;;;5022241;28;20088;-84
2021/11/08 08:52:52;;;;;;;7.03;2.72;;;10.50;92.80;;;;;;5023231;28;20026;-84
2021/11/08 08:55:18;;;;;;;5.32;2.53;;;10.80;91.30;;;;;;5023144;28;20032;-84
2021/11/08 08:57:45;;;;;;;7.10;2.20;;;11.00;89.60;;;;;;5021300;28;20084;-83
2021/11/08 09:00:13;;;;;;;9.07;2.90;;;11.20;87.90;;;;;;5025468;28;20036;-83
2021/11/08 09:02:39;;;;;;;12.93;3.30;;;11.30;84.50;;;;;;5029895;28;20082;-83
2021/11/08 09:05:05;;;;;;;9.30;2.92;;;11.30;81.40;;;;;;5031216;28;20030;-83
2021/11/08 09:07:31;;;;;;;18.10;2.97;;;11.10;81.60;;;;;;5030463;28;20026;-84
2021/11/08 09:09:57;;;;;;;13.05;2.92;;;10.90;79.10;;;;;;5013291;28;20045;-83
2021/11/08 09:12:23;;;;;;;12.23;3.50;;;10.70;79.40;;;;;;5013351;28;20018;-84
2021/11/08 09:14:49;;;;;;;9.00;2.42;;;10.00;81.40;;;;;;5031303;28;20022;-84
2021/11/08 09:17:15;;;;;;;8.90;2.50;;;9.30;84.40;;;;;;5014653;28;20102;-84
2021/11/08 09:19:41;;;;;;;12.48;3.05;;;8.80;86.90;;;;;;5029918;28;20030;-84
2021/11/08 09:22:13;;;;;;;14.63;3.45;;;8.50;87.80;;;;;;5011642;28;20048;-84
2021/11/08 09:24:40;;;;;;;16.17;2.90;;;8.20;89.70;;;;;;5025113;28;20022;-83
2021/11/08 09:27:06;;;;;;;10.75;3.78;;;7.90;90.40;;;;;;5025430;28;20053;-84
2021/11/08 09:29:32;;;;;;;10.90;2.53;;;7.70;90.90;;;;;;5023810;28;20030;-84
2021/11/08 09:31:57;;;;;;;6.20;2.83;;;7.50;91.50;;;;;;5023559;28;20038;-82
2021/11/08 09:34:24;;;;;;;5.90;1.85;;;7.50;92.00;;;;;;5023075;28;20057;-85
2021/11/08 09:36:52;;;;;;;9.02;2.75;;;7.50;92.50;;;;;;5023297;28;20021;-83
2021/11/08 09:39:25;;;;;;;14.55;3.28;;;7.50;92.60;;;;;;5023390;28;20663;-83
2021/11/08 09:41:58;;;;;;;8.77;2.15;;;7.40;92.40;;;;;;5001499;28;20115;-83
2021/11/08 09:44:25;;;;;;;7.07;2.45;;;7.40;92.60;;;;;;5008522;28;20038;-83
2021/11/08 09:46:55;;;;;;;7.53;2.83;;;7.30;92.80;;;;;;5028492;28;20022;-83
2021/11/08 09:49:22;;;;;;;7.38;2.03;;;7.30;93.10;;;;;;5024888;28;20033;-84
2021/11/08 09:51:50;;;;;;;7.43;2.20;;;7.40;93.20;;;;;;5023558;28;20133;-84
2021/11/08 09:54:18;;;;;;;13.45;2.80;;;7.30;93.20;;;;;;5024072;28;20025;-82
2021/11/08 09:56:47;;;;;;;9.57;2.60;;;7.30;93.10;;;;;;5006114;28;20021;-85
2021/11/08 09:59:14;;;;;;;8.88;2.38;;;7.40;93.20;;;;;;5027882;28;20017;-83
2021/11/08 10:01:42;;;;;;;7.43;1.80;;;7.40;93.40;;;;;;5029938;28;20030;-83
2021/11/08 10:04:10;;;;;;;4.03;1.73;;;7.50;93.50;;;;;;5027875;28;20516;-83
2021/11/08 10:06:37;;;;;;;3.70;1.52;;;7.50;93.50;;;;;;5030531;28;20022;-83
2021/11/08 10:09:06;;;;;;;4.20;1.45;;;7.60;93.30;;;;;;5029964;28;20018;-84
2021/11/08 10:11:32;;;;;;;8.15;1.58;;;7.60;93.00;;;;;;4995150;28;20033;-84
2021/11/08 10:13:58;;;;;;;8.98;2.20;;;7.70;93.00;;;;;;5008355;28;20038;-84
2021/11/08 10:16:30;;;;;;;8.95;1.95;;;7.80;92.80;;;;;;5007953;28;20018;-84
2021/11/08 10:19:04;;;;;;;5.82;1.83;;;8.00;92.40;;;;;;5022799;28;20110;-84
2021/11/08 10:21:37;;;;;;;9.20;2.45;;;8.10;91.80;;;;;;5005969;28;20057;-84
2021/11/08 10:24:07;;;;;;;13.32;2.20;;;8.30;91.80;;;;;;5022533;28;20029;-84
2021/11/08 10:26:36;;;;;;;10.35;2.58;;;8.40;90.90;;;;;;5005106;28;20037;-83
2021/11/08 10:29:10;;;;;;;10.35;2.60;;;8.60;90.20;;;;;;5005632;28;20077;-83
2021/11/08 10:31:44;;;;;;;7.53;1.73;;;8.70;89.90;;;;;;5020663;28;20439;-84
2021/11/08 10:34:11;;;;;;;5.88;1.40;;;9.00;89.30;;;;;;5021857;28;20061;-85
2021/11/08 10:36:37;;;;;;;8.55;2.13;;;9.40;88.20;;;;;;5024012;28;20022;-83
2021/11/08 10:39:06;;;;;;;4.85;1.75;;;9.60;86.00;;;;;;5025879;28;20026;-83
2021/11/08 10:41:35;;;;;;;8.00;2.35;;;9.50;84.40;;;;;;5019145;28;20100;-84
2021/11/08 10:44:21;;;;;;;6.80;1.90;;;9.40;84.40;;;;;;5023374;28;20440;-84
2021/11/08 10:47:07;;;;;;;13.07;2.28;;;9.30;84.90;;;;;;5024672;28;20021;-84
2021/11/08 10:49:38;;;;;;;5.55;2.10;;;9.00;84.70;;;;;;5024129;28;20030;-83
2021/11/08 10:52:04;;;;;;;5.20;2.42;;;8.80;85.30;;;;;;5026420;28;20040;-85
2021/11/08 10:54:37;;;;;;;5.53;1.92;;;8.70;86.10;;;;;;5025527;28;20037;-84
2021/11/08 10:57:10;;;;;;;5.40;1.80;;;8.70;86.40;;;;;;5025587;28;20022;-83
2021/11/08 10:59:43;;;;;;;9.95;2.10;;;8.60;86.30;;;;;;5024703;28;20049;-84
2021/11/08 11:02:12;;;;;;;5.15;2.15;;;8.50;86.40;;;;;;5007211;28;20042;-84
2021/11/08 11:04:44;;;;;;;7.45;1.90;;;8.50;86.70;;;;;;5005153;28;20065;-84
2021/11/08 11:07:14;;;;;;;;;;;8.40;86.80;;;;;;4988254;28;20026;-84
2021/11/08 11:09:40;;;;;;;5.45;2.13;;;8.40;87.10;;;;;;5006475;28;19909;-84
2021/11/08 11:12:16;;;;;;;8.57;2.40;;;8.40;87.30;;;;;;5006902;28;20375;-83
2021/11/08 11:14:51;;;;;;;6.18;1.75;;;8.60;87.50;;;;;;5005787;28;20030;-85
2021/11/08 11:17:18;;;;;;;5.25;1.42;;;8.70;87.30;;;;;;5007153;28;20050;-84
2021/11/08 11:19:45;;;;;;;3.47;1.42;;;8.90;87.20;;;;;;5025700;28;20029;-85
2021/11/08 11:22:14;;;;;;;8.25;2.38;;;8.90;87.00;;;;;;5024181;28;20080;-84
2021/11/08 11:24:46;;;;;;;13.05;4.07;;;9.00;86.60;;;;;;5021522;28;20044;-83
2021/11/08 11:27:28;;;;;;;10.38;2.40;;;9.10;86.20;;;;;;5024452;28;20049;-82
2021/11/08 11:30:09;;;;;;;11.23;3.47;;;9.20;87.00;;;;;;5026557;28;20014;-83
2021/11/08 11:32:36;;;;;;;10.13;3.33;;;9.30;85.10;;;;;;5024738;28;20081;-84
2021/11/08 11:35:10;;;;;;;13.52;3.00;;;9.40;85.60;;;;;;5016978;23;20061;-83
2021/11/08 11:37:36;;;;;;;9.25;2.90;;;9.50;85.90;;;;;;5021931;28;20054;-80
2021/11/08 11:40:09;;;;;;;9.40;2.40;;;9.60;85.50;;;;;;5020706;28;20033;-82
2021/11/08 11:42:55;;;;;;;9.82;3.00;;;9.80;83.00;;;;;;5022346;28;20107;-81
2021/11/08 11:45:21;;;;;;;19.23;3.67;;;9.80;83.50;;;;;;5022498;28;20149;-81
2021/11/08 11:48:03;;;;;;;11.55;3.03;;;9.90;82.10;;;;;;5019589;28;20020;-81
2021/11/08 11:50:34;;;;;;;16.15;3.95;;;9.80;81.70;;;;;;5020153;28;20510;-81
2021/11/08 11:53:03;;;;;;;13.30;3.55;;;9.70;82.50;;;;;;5025770;28;20534;-82
2021/11/08 11:55:30;;;;;;;12.00;2.85;;;9.40;82.30;;;;;;5026397;28;20104;-82
2021/11/08 11:58:01;;;;;;;11.07;2.45;;;9.20;83.50;;;;;;5022341;28;20029;-82
2021/11/08 12:00:30;;;;;;;6.15;1.90;;;9.10;83.80;;;;;;5021463;28;20072;-81
2021/11/08 12:02:57;;;;;;;5.45;1.80;;;9.10;84.70;;;;;;5003017;28;20452;-81
2021/11/08 12:05:24;;;;;;;6.00;1.70;;;9.20;85.00;;;;;;5019322;28;20026;-81
2021/11/08 12:07:54;;;;;;;6.85;2.63;;;9.30;84.70;;;;;;5001465;28;20037;-82
2021/11/08 12:10:21;;;;;;;7.88;2.08;;;9.50;84.60;;;;;;5020238;28;20084;-82
2021/11/08 12:12:47;;;;;;;13.18;2.60;;;9.80;83.10;;;;;;5002281;28;20026;-82
2021/11/08 12:15:16;;;;;;;13.75;3.13;;;10.10;80.70;;;;;;5020807;28;20427;-82
2021/11/08 12:17:47;;;;;;;9.20;2.15;;;10.40;79.00;;;;;;5022201;28;20081;-82
2021/11/08 12:20:24;;;;;;;8.27;2.30;;;10.60;78.60;;;;;;5020542;28;20542;-81
2021/11/08 12:22:50;;;;;;;9.38;2.35;;;10.50;75.70;;;;;;5021718;28;20026;-80
2021/11/08 12:25:19;;;;;;;12.82;2.70;;;10.30;77.00;;;;;;5020349;28;20058;-81
2021/11/08 12:27:48;;;;;;;7.03;2.05;;;10.30;78.30;;;;;;5005181;28;20025;-81
2021/11/08 12:30:17;;;;;;;10.02;2.50;;;10.40;79.10;;;;;;5013234;28;20394;-82
2021/11/08 12:32:56;;;;;;;10.48;2.65;;;10.60;78.40;;;;;;5021376;28;20052;-82
2021/11/08 12:35:31;;;;;;;14.13;4.30;;;10.50;76.70;;;;;;5022742;28;20053;-82
2021/11/08 12:37:57;;;;;;;9.27;2.63;;;10.20;76.50;;;;;;5006394;28;20045;-80
2021/11/08 12:40:28;;;;;;;11.50;2.42;;;10.10;77.30;;;;;;5029043;28;20045;-79
2021/11/08 12:42:55;;;;;;;8.55;2.45;;;10.00;76.80;;;;;;5019021;28;20115;-81
2021/11/08 12:45:26;;;;;;;11.82;2.70;;;9.90;77.90;;;;;;5030168;28;20076;-81
2021/11/08 12:48:18;;;;;;;8.05;2.08;;;9.60;78.40;;;;;;5036607;28;20022;-81
2021/11/08 12:50:54;;;;;;;13.93;2.90;;;9.20;79.80;;;;;;5032628;28;20060;-81
2021/11/08 12:53:28;;;;;;;10.48;2.40;;;8.90;80.60;;;;;;5035590;28;20034;-81
2021/11/08 12:55:57;;;;;;;17.88;3.30;;;8.70;81.00;;;;;;5013294;28;20068;-82
2021/11/08 12:58:43;;;;;;;8.73;2.17;;;8.60;82.00;;;;;;5002550;28;20030;-81
2021/11/08 13:01:14;;;;;;;7.25;2.20;;;8.50;83.20;;;;;;5001968;28;20403;-81
2021/11/08 13:03:44;;;;;;;11.80;2.92;;;8.40;83.90;;;;;;5020720;28;20061;-81
2021/11/08 13:06:25;;;;;;;10.73;2.35;;;8.40;84.00;;;;;;5002142;28;20030;-81
2021/11/08 13:09:05;;;;;;;9.93;2.03;;;8.30;84.00;;;;;;5018649;28;20118;-82
2021/11/08 13:11:42;;;;;;;10.55;1.90;;;8.40;84.10;;;;;;5017699;28;20049;-82
2021/11/08 13:14:09;;;;;;;8.68;2.00;;;8.40;84.10;;;;;;5017121;28;20083;-81
2021/11/08 13:16:36;;;;;;;10.27;2.20;;;8.50;83.90;;;;;;5018017;28;20022;-82
2021/11/08 13:19:06;;;;;;;6.00;2.20;;;8.40;83.60;;;;;;5017640;28;20090;-81
2021/11/08 13:21:33;;;;;;;6.07;1.98;;;8.40;82.70;;;;;;5000477;28;20033;-82
2021/11/08 13:23:59;;;;;;;5.65;2.25;;;8.40;82.20;;;;;;5018108;28;20017;-81
2021/11/08 13:26:25;;;;;;;10.57;2.55;;;8.30;82.50;;;;;;4999866;28;20097;-81
2021/11/08 13:28:51;;;;;;;8.38;2.08;;;8.30;82.10;;;;;;5017736;28;20030;-82
2021/11/08 13:31:17;;;;;;;6.30;1.88;;;8.40;81.60;;;;;;5017466;28;20026;-81
2021/11/08 13:33:49;;;;;;;8.23;2.13;;;8.70;81.30;;;;;;5000671;28;20030;-81
2021/11/08 13:36:15;;;;;;;6.35;1.92;;;9.10;80.20;;;;;;5017243;28;20033;-80
2021/11/08 13:38:44;;;;;;;8.10;2.45;;;9.50;78.60;;;;;;5017822;28;20032;-82
2021/11/08 13:41:18;;;;;;;5.53;1.77;;;9.70;76.00;;;;;;5018035;28;20514;-82
2021/11/08 13:44:03;;;;;;;9.00;2.45;;;9.80;76.00;;;;;;5019053;28;20022;-82
2021/11/08 13:46:41;;;;;;;12.27;2.50;;;9.90;75.10;;;;;;5016960;28;20108;-81
2021/11/08 13:49:10;;;;;;;11.85;2.10;;;9.90;74.20;;;;;;5001583;28;20026;-81
2021/11/08 13:51:46;;;;;;;13.32;2.63;;;9.90;73.90;;;;;;5017552;28;20025;-83
2021/11/08 13:54:27;;;;;;;11.13;2.28;;;9.60;74.50;;;;;;5017276;28;20021;-81
2021/11/08 13:56:58;;;;;;;12.45;2.30;;;9.20;75.20;;;;;;5018583;28;20030;-82
2021/11/08 13:59:47;;;;;;;10.68;2.33;;;9.00;76.30;;;;;;5016936;28;20076;-82
2021/11/08 14:02:20;;;;;;;9.75;2.35;;;8.90;76.80;;;;;;5018118;28;20076;-81
2021/11/08 14:04:56;;;;;;;8.55;2.00;;;8.80;76.80;;;;;;5033358;28;20014;-81
2021/11/08 14:07:24;;;;;;;10.23;2.17;;;8.70;76.70;;;;;;5027406;28;20029;-81
2021/11/08 14:09:52;;;;;;;12.15;2.50;;;8.70;76.60;;;;;;5000720;28;20033;-81
2021/11/08 14:12:20;;;;;;;11.13;2.38;;;8.80;76.80;;;;;;5006007;28;20036;-81
2021/11/08 14:14:48;;;;;;;10.75;1.88;;;8.80;76.60;;;;;;5025958;28;20406;-81
2021/11/08 14:17:19;;;;;;;9.25;2.17;;;8.70;76.90;;;;;;5015305;28;20045;-81
2021/11/08 14:19:47;;;;;;;7.68;2.00;;;8.70;76.80;;;;;;5035566;28;20109;-80
2021/11/08 14:22:14;;;;;;;11.45;1.80;;;8.60;76.40;;;;;;5031963;28;20074;-81
2021/11/08 14:24:43;;;;;;;10.45;2.15;;;8.50;76.80;;;;;;5021466;28;20501;-82
2021/11/08 14:27:24;;;;;;;11.30;2.20;;;8.50;76.90;;;;;;5005394;28;20073;-82
2021/11/08 14:29:50;;;;;;;7.97;1.90;;;8.40;76.40;;;;;;5020654;28;20037;-82
2021/11/08 14:32:24;;;;;;;12.63;2.38;;;8.40;76.30;;;;;;5021583;28;20086;-82
2021/11/08 14:35:31;;;;;;;8.05;1.73;;;8.40;76.50;;;;;;5019793;28;20022;-81
2021/11/08 14:40:31;;;;;;;7.30;2.35;;;8.20;76.70;;;;;;5020363;28;20041;-82
2021/11/08 14:42:56;;;;;;;13.43;2.58;;;8.20;77.10;;;;;;5002773;28;20037;-82
2021/11/08 14:45:28;;;;;;;8.63;2.08;;;8.10;76.80;;;;;;5008170;28;20026;-81
2021/11/08 14:48:00;;;;;;;7.90;1.85;;;8.20;77.10;;;;;;5014061;28;20029;-82
2021/11/08 14:50:28;;;;;;;10.73;2.33;;;8.10;77.00;;;;;;5019686;28;20030;-81
2021/11/08 14:52:56;;;;;;;13.38;2.03;;;8.20;77.30;;;;;;5022216;28;20026;-82